Time;durP1;ratioP1;P1;durP2;ratioP2;P2;SDS_P1;SDS_P2;PMS_P1;PMS_P2;Temp;Humidity;BMP_temperature;BMP_pressure;BME280_temperature;BME280_humidity;BME280_pressure;Samples;Min_cycle;Max_cycle;Signal;HPM_P1;HPM_P2
2021/06/27 00:00:27;;;;;;;21.70;16.97;;;20.10;1.00;;;;;;5065155;28;20564;-50
2021/06/27 00:02:55;;;;;;;17.93;15.97;;;20.20;1.00;;;;;;5061003;28;20254;-51
2021/06/27 00:05:24;;;;;;;20.43;17.63;;;20.20;1.00;;;;;;5063194;28;20248;-51
2021/06/27 00:07:52;;;;;;;22.03;17.90;;;20.20;1.00;;;;;;5061155;28;20285;-50
2021/06/27 00:10:28;;;;;;;20.33;16.80;;;20.20;1.00;;;;;;5064623;28;20289;-51
2021/06/27 00:12:55;;;;;;;24.83;17.23;;;20.20;1.00;;;;;;5067537;28;20221;-51
2021/06/27 00:15:27;;;;;;;21.07;17.80;;;20.10;1.00;;;;;;5067506;28;20206;-51
2021/06/27 00:17:55;;;;;;;20.73;17.13;;;20.10;1.00;;;;;;5059136;28;20245;-51
2021/06/27 00:20:24;;;;;;;20.43;16.67;;;20.10;99.90;;;;;;5058915;28;20224;-51
2021/06/27 00:22:53;;;;;;;23.90;17.77;;;20.00;99.90;;;;;;5063435;28;20241;-50
2021/06/27 00:25:24;;;;;;;23.93;17.60;;;20.00;99.90;;;;;;5061834;28;20199;-51
2021/06/27 00:27:54;;;;;;;19.70;17.10;;;19.90;99.90;;;;;;5060768;28;20204;-51
2021/06/27 00:30:23;;;;;;;21.50;18.67;;;20.00;99.90;;;;;;5060390;28;22006;-50
2021/06/27 00:32:50;;;;;;;21.63;17.13;;;19.90;99.90;;;;;;5061358;28;20224;-50
2021/06/27 00:35:18;;;;;;;23.40;18.73;;;19.80;99.90;;;;;;5056983;28;20212;-51
2021/06/27 00:37:45;;;;;;;23.83;18.90;;;19.80;99.90;;;;;;5061022;28;20229;-52
2021/06/27 00:40:15;;;;;;;22.33;18.23;;;19.80;99.90;;;;;;5060411;28;20581;-50
2021/06/27 00:42:43;;;;;;;24.20;18.33;;;19.90;99.90;;;;;;5059948;28;20241;-51
2021/06/27 00:45:12;;;;;;;21.90;18.33;;;19.90;99.90;;;;;;5061962;28;20229;-51
2021/06/27 00:47:40;;;;;;;22.77;18.80;;;19.80;99.90;;;;;;5062017;28;20620;-51
2021/06/27 00:50:11;;;;;;;23.37;18.70;;;19.60;99.90;;;;;;5063839;28;20391;-51
2021/06/27 00:52:38;;;;;;;25.23;18.60;;;19.60;99.90;;;;;;5063016;28;20581;-51
2021/06/27 00:55:06;;;;;;;21.67;17.83;;;19.70;99.90;;;;;;5060665;28;20204;-51
2021/06/27 00:57:33;;;;;;;23.03;18.83;;;19.70;99.90;;;;;;5060018;28;20273;-49
2021/06/27 01:00:09;;;;;;;20.97;18.03;;;19.80;99.90;;;;;;5064364;28;20221;-53
2021/06/27 01:02:37;;;;;;;25.03;18.70;;;19.70;99.90;;;;;;5061839;28;20291;-50
2021/06/27 01:05:08;;;;;;;24.07;18.93;;;19.60;99.90;;;;;;5062624;28;20192;-50
2021/06/27 01:07:35;;;;;;;25.37;18.47;;;19.60;99.90;;;;;;5062614;28;20229;-52
2021/06/27 01:10:03;;;;;;;23.47;17.83;;;19.70;99.90;;;;;;5060373;28;20223;-50
2021/06/27 01:12:30;;;;;;;24.27;19.37;;;19.70;99.90;;;;;;5059967;28;20408;-51
2021/06/27 01:15:05;;;;;;;23.23;18.57;;;19.70;99.90;;;;;;5062392;28;20202;-51
2021/06/27 01:17:33;;;;;;;21.03;18.23;;;19.70;99.90;;;;;;5062392;28;20250;-50
2021/06/27 01:20:00;;;;;;;25.27;18.73;;;19.60;99.90;;;;;;5060806;28;20206;-50
2021/06/27 01:22:27;;;;;;;24.80;18.93;;;19.50;99.90;;;;;;5063631;28;20209;-51
2021/06/27 01:24:54;;;;;;;26.20;19.47;;;19.60;99.90;;;;;;5054892;28;20583;-50
2021/06/27 01:27:21;;;;;;;24.47;17.27;;;19.50;99.90;;;;;;5061345;28;20588;-51
2021/06/27 01:29:48;;;;;;;25.03;18.93;;;19.50;99.90;;;;;;5063750;28;20737;-50
2021/06/27 01:32:15;;;;;;;23.13;18.10;;;19.50;99.90;;;;;;5060896;28;20204;-51
2021/06/27 01:34:43;;;;;;;23.90;17.97;;;19.50;99.90;;;;;;5063245;28;20227;-50
2021/06/27 01:37:10;;;;;;;22.17;18.60;;;19.40;99.90;;;;;;5061994;28;20259;-50
2021/06/27 01:39:39;;;;;;;23.87;18.63;;;19.40;99.90;;;;;;5060786;28;20220;-51
2021/06/27 01:42:06;;;;;;;25.13;17.97;;;19.50;99.90;;;;;;5063179;28;20317;-50
2021/06/27 01:44:33;;;;;;;23.33;18.20;;;19.40;99.90;;;;;;5058238;28;20418;-51
2021/06/27 01:47:00;;;;;;;22.13;17.83;;;19.40;99.90;;;;;;5061854;28;20342;-52
2021/06/27 01:49:27;;;;;;;22.10;17.90;;;19.50;99.90;;;;;;5061001;28;20224;-52
2021/06/27 01:51:54;;;;;;;22.27;17.53;;;19.40;99.90;;;;;;5061274;28;20202;-52
2021/06/27 01:54:21;;;;;;;23.63;17.70;;;19.40;99.90;;;;;;5059688;28;20242;-52
2021/06/27 01:56:48;;;;;;;21.97;17.67;;;19.40;99.90;;;;;;5062597;28;20270;-52
2021/06/27 01:59:15;;;;;;;21.30;17.80;;;19.40;99.90;;;;;;5063431;28;20674;-52
2021/06/27 02:01:42;;;;;;;23.13;17.43;;;19.40;99.90;;;;;;5063114;28;20205;-51
2021/06/27 02:04:10;;;;;;;22.50;17.47;;;19.40;99.90;;;;;;5063984;28;20242;-51
2021/06/27 02:06:45;;;;;;;23.03;17.27;;;19.50;99.90;;;;;;5059974;28;20223;-51
2021/06/27 02:09:13;;;;;;;25.00;17.03;;;19.40;99.90;;;;;;5066200;28;20297;-50
2021/06/27 02:11:40;;;;;;;21.67;15.60;;;19.40;99.90;;;;;;5066303;28;20215;-52
2021/06/27 02:14:08;;;;;;;21.57;16.20;;;19.50;99.90;;;;;;5067978;28;20191;-51
2021/06/27 02:16:35;;;;;;;24.83;17.17;;;19.50;99.90;;;;;;5062593;28;20310;-51
2021/06/27 02:19:03;;;;;;;21.07;16.57;;;19.40;99.90;;;;;;5067848;28;20279;-51
2021/06/27 02:21:36;;;;;;;22.13;15.73;;;19.40;99.90;;;;;;5061749;28;20670;-51
2021/06/27 02:24:04;;;;;;;18.90;15.13;;;19.40;99.90;;;;;;5062405;28;20705;-51
2021/06/27 02:26:32;;;;;;;21.53;15.93;;;19.50;99.90;;;;;;5054922;28;20246;-51
2021/06/27 02:28:59;;;;;;;17.43;14.90;;;19.50;99.90;;;;;;5060866;28;20402;-51
2021/06/27 02:31:27;;;;;;;21.13;15.33;;;19.50;99.90;;;;;;5060598;28;20219;-51
2021/06/27 02:33:55;;;;;;;21.30;14.90;;;19.60;99.90;;;;;;5063621;28;20196;-51
2021/06/27 02:36:21;;;;;;;19.13;15.63;;;19.60;99.90;;;;;;5061584;28;20393;-53
2021/06/27 02:38:49;;;;;;;20.70;15.50;;;19.60;99.90;;;;;;5064395;28;20200;-50
2021/06/27 02:41:17;;;;;;;17.67;14.33;;;19.60;99.90;;;;;;5059193;28;20290;-51
2021/06/27 02:43:44;;;;;;;19.57;15.53;;;19.60;99.90;;;;;;5060304;28;20243;-51
2021/06/27 02:46:11;;;;;;;22.83;15.90;;;19.60;99.90;;;;;;5062078;28;20290;-51
2021/06/27 02:48:38;;;;;;;20.73;15.30;;;19.60;99.90;;;;;;5062386;28;20250;-52
2021/06/27 02:51:05;;;;;;;20.37;15.50;;;19.50;99.90;;;;;;5059809;28;20290;-51
2021/06/27 02:53:32;;;;;;;22.23;15.53;;;19.60;99.90;;;;;;5068125;28;20259;-52
2021/06/27 02:56:08;;;;;;;20.43;15.43;;;19.50;99.90;;;;;;5062616;28;20274;-50
2021/06/27 02:58:41;;;;;;;19.30;15.93;;;19.40;99.90;;;;;;5065066;28;20269;-51
2021/06/27 03:01:09;;;;;;;21.37;15.37;;;19.30;99.90;;;;;;5063434;28;20253;-50
2021/06/27 03:03:38;;;;;;;20.20;15.43;;;19.20;99.90;;;;;;5066319;28;20604;-51
2021/06/27 03:06:05;;;;;;;19.53;15.27;;;19.30;99.90;;;;;;5061711;28;20294;-51
2021/06/27 03:08:32;;;;;;;21.13;15.53;;;19.30;99.90;;;;;;5063573;28;20296;-51
2021/06/27 03:11:00;;;;;;;21.10;15.47;;;19.30;99.90;;;;;;5064012;28;20219;-51
2021/06/27 03:13:27;;;;;;;20.27;15.00;;;19.30;99.90;;;;;;5062605;28;20290;-51
2021/06/27 03:15:54;;;;;;;18.87;15.43;;;19.20;99.90;;;;;;5064949;28;20298;-51
2021/06/27 03:18:21;;;;;;;21.33;15.83;;;19.10;99.90;;;;;;5064429;28;20267;-51
2021/06/27 03:20:48;;;;;;;18.90;14.90;;;19.10;99.90;;;;;;5062371;28;20322;-51
2021/06/27 03:23:15;;;;;;;22.90;15.97;;;19.10;99.90;;;;;;5062190;28;20330;-51
2021/06/27 03:25:42;;;;;;;19.03;14.90;;;19.20;99.90;;;;;;5064878;28;20603;-51
2021/06/27 03:28:09;;;;;;;19.90;15.33;;;19.10;99.90;;;;;;5060950;28;20290;-51
2021/06/27 03:30:36;;;;;;;20.50;14.83;;;19.10;99.90;;;;;;5065597;28;20229;-52
2021/06/27 03:33:05;;;;;;;20.77;15.60;;;19.10;99.90;;;;;;5059916;28;20201;-52
2021/06/27 03:35:32;;;;;;;20.97;15.70;;;19.10;99.90;;;;;;5064905;28;20221;-51
2021/06/27 03:38:12;;;;;;;20.20;16.47;;;19.10;99.90;;;;;;5064414;28;20273;-50
2021/06/27 03:40:41;;;;;;;18.33;15.37;;;19.00;99.90;;;;;;5062919;28;20245;-50
2021/06/27 03:43:08;;;;;;;20.17;15.50;;;19.10;99.90;;;;;;5064825;28;20246;-51
2021/06/27 03:45:37;;;;;;;21.87;15.27;;;19.10;99.90;;;;;;5063745;28;20349;-51
2021/06/27 03:48:07;;;;;;;19.57;16.07;;;19.20;99.90;;;;;;5058279;28;20295;-51
2021/06/27 03:50:34;;;;;;;22.10;16.33;;;19.10;99.90;;;;;;5062800;28;20617;-50
2021/06/27 03:53:02;;;;;;;20.43;15.73;;;19.10;99.90;;;;;;5064562;28;20203;-51
2021/06/27 03:55:29;;;;;;;21.73;16.73;;;19.20;99.90;;;;;;5062568;28;20655;-51
2021/06/27 03:57:56;;;;;;;22.27;15.73;;;19.30;99.90;;;;;;5064093;28;20710;-51
2021/06/27 04:00:23;;;;;;;22.63;16.23;;;19.20;99.90;;;;;;5067142;28;20292;-51
2021/06/27 04:02:50;;;;;;;19.60;15.83;;;19.20;99.90;;;;;;5059652;28;20352;-51
2021/06/27 04:05:17;;;;;;;20.67;15.47;;;19.30;99.90;;;;;;5066168;28;20405;-52
2021/06/27 04:07:44;;;;;;;21.13;15.47;;;19.30;99.90;;;;;;5062137;28;20682;-51
2021/06/27 04:10:11;;;;;;;22.03;15.90;;;19.20;99.90;;;;;;5062535;28;20226;-51
2021/06/27 04:12:38;;;;;;;20.43;16.33;;;19.10;99.90;;;;;;5061922;28;20283;-51
2021/06/27 04:15:07;;;;;;;19.97;15.77;;;19.10;99.90;;;;;;5063407;28;20409;-51
2021/06/27 04:17:34;;;;;;;21.73;15.80;;;19.20;99.90;;;;;;5062006;28;20264;-52
2021/06/27 04:20:02;;;;;;;23.33;15.53;;;19.20;99.90;;;;;;5059892;28;20204;-50
2021/06/27 04:22:29;;;;;;;21.97;15.80;;;19.20;99.90;;;;;;5062633;28;20321;-51
2021/06/27 04:24:55;;;;;;;19.40;16.07;;;19.20;99.90;;;;;;5063457;28;20262;-50
2021/06/27 04:27:23;;;;;;;22.80;15.83;;;19.20;99.90;;;;;;5061983;28;20227;-51
2021/06/27 04:29:49;;;;;;;19.30;15.83;;;19.30;99.90;;;;;;5061956;28;20291;-50
2021/06/27 04:32:16;;;;;;;21.53;15.93;;;19.20;99.90;;;;;;5062491;28;20275;-50
2021/06/27 04:34:43;;;;;;;18.80;14.83;;;19.30;99.90;;;;;;5061147;28;20679;-50
2021/06/27 04:37:10;;;;;;;26.13;16.00;;;19.30;99.90;;;;;;5059771;28;20235;-50
2021/06/27 04:39:37;;;;;;;20.37;15.80;;;19.30;99.90;;;;;;5060190;28;20332;-50
2021/06/27 04:42:04;;;;;;;22.57;16.17;;;19.30;99.90;;;;;;5063545;28;20572;-51
2021/06/27 04:44:31;;;;;;;23.00;15.13;;;19.30;99.90;;;;;;5058954;28;20449;-51
2021/06/27 04:46:58;;;;;;;20.23;16.20;;;19.30;99.90;;;;;;5063666;28;20205;-51
2021/06/27 04:49:25;;;;;;;20.53;15.70;;;19.30;99.90;;;;;;5059841;28;20308;-52
2021/06/27 04:51:52;;;;;;;19.43;15.17;;;19.40;99.90;;;;;;5059040;28;20276;-50
2021/06/27 04:54:18;;;;;;;22.53;15.93;;;19.30;99.90;;;;;;5064307;28;20287;-51
2021/06/27 04:56:45;;;;;;;20.27;15.20;;;19.40;99.90;;;;;;5062133;28;20607;-50
2021/06/27 04:59:12;;;;;;;21.37;16.33;;;19.50;99.90;;;;;;5063999;28;20330;-50
2021/06/27 05:01:39;;;;;;;23.37;16.47;;;19.40;99.90;;;;;;5062950;28;20634;-50
2021/06/27 05:04:06;;;;;;;21.43;15.70;;;19.40;99.90;;;;;;5064498;28;20207;-51
2021/06/27 05:06:32;;;;;;;21.03;15.80;;;19.50;99.90;;;;;;5058791;28;20239;-51
2021/06/27 05:08:59;;;;;;;21.40;15.97;;;19.50;99.90;;;;;;5065096;28;20290;-51
2021/06/27 05:11:26;;;;;;;21.20;16.10;;;19.50;99.90;;;;;;5060844;28;20199;-51
2021/06/27 05:13:53;;;;;;;21.23;16.23;;;19.40;99.90;;;;;;5060944;28;20242;-50
2021/06/27 05:16:19;;;;;;;22.53;16.17;;;19.30;99.90;;;;;;5060888;28;20286;-50
2021/06/27 05:18:46;;;;;;;20.57;15.87;;;19.40;99.90;;;;;;5063015;28;20598;-51
2021/06/27 05:21:13;;;;;;;25.00;16.33;;;19.60;99.90;;;;;;5058986;28;20227;-50
2021/06/27 05:23:40;;;;;;;20.80;16.07;;;19.60;99.90;;;;;;5064271;28;20222;-51
2021/06/27 05:26:07;;;;;;;20.00;14.97;;;19.50;99.90;;;;;;5060273;28;20211;-51
2021/06/27 05:28:34;;;;;;;20.80;15.47;;;19.50;99.90;;;;;;5056863;28;20219;-51
2021/06/27 05:31:00;;;;;;;24.40;16.17;;;19.60;99.90;;;;;;5061563;28;20283;-50
2021/06/27 05:33:27;;;;;;;18.50;14.87;;;19.50;99.90;;;;;;5062225;28;20552;-51
2021/06/27 05:35:54;;;;;;;20.30;15.33;;;19.60;99.90;;;;;;5060742;28;20244;-51
2021/06/27 05:38:25;;;;;;;23.60;17.00;;;19.70;99.90;;;;;;5062087;28;20318;-51
2021/06/27 05:40:53;;;;;;;22.40;15.87;;;19.70;99.90;;;;;;5058606;28;20289;-51
2021/06/27 05:43:20;;;;;;;21.43;15.97;;;19.80;99.90;;;;;;5060187;28;20672;-51
2021/06/27 05:45:47;;;;;;;17.37;14.73;;;19.70;99.90;;;;;;5059358;28;20233;-51
2021/06/27 05:48:14;;;;;;;19.63;16.03;;;19.80;99.90;;;;;;5058496;28;20227;-52
2021/06/27 05:50:40;;;;;;;19.03;14.90;;;19.80;99.90;;;;;;5064486;28;20242;-52
2021/06/27 05:53:07;;;;;;;22.50;15.70;;;19.80;99.90;;;;;;5062544;28;20223;-51
2021/06/27 05:55:34;;;;;;;21.07;15.03;;;19.80;99.90;;;;;;5060185;28;20282;-51
2021/06/27 05:58:01;;;;;;;18.00;15.00;;;19.90;99.90;;;;;;5061249;28;20640;-51
2021/06/27 06:00:28;;;;;;;23.13;15.10;;;20.00;99.90;;;;;;5057217;28;20266;-51
2021/06/27 06:02:54;;;;;;;18.07;13.90;;;20.10;99.90;;;;;;5059251;28;20590;-51
2021/06/27 06:05:21;;;;;;;18.60;15.47;;;20.20;99.90;;;;;;5061291;28;20242;-51
2021/06/27 06:07:49;;;;;;;20.87;15.50;;;20.20;99.90;;;;;;5062587;28;20246;-51
2021/06/27 06:10:16;;;;;;;20.47;14.87;;;20.20;99.90;;;;;;5059195;28;21202;-51
2021/06/27 06:12:42;;;;;;;19.57;14.20;;;20.20;99.90;;;;;;5061555;28;20274;-51
2021/06/27 06:15:10;;;;;;;18.87;15.07;;;20.30;99.90;;;;;;5063948;28;20753;-51
2021/06/27 06:17:37;;;;;;;16.83;14.23;;;20.40;99.90;;;;;;5062371;28;20665;-52
2021/06/27 06:20:05;;;;;;;16.83;13.43;;;20.40;99.90;;;;;;5061099;28;20250;-51
2021/06/27 06:22:32;;;;;;;19.60;14.30;;;20.40;99.90;;;;;;5058856;28;20253;-51
2021/06/27 06:24:59;;;;;;;22.00;14.67;;;20.40;99.90;;;;;;5062564;28;20207;-51
2021/06/27 06:27:25;;;;;;;16.63;13.13;;;20.60;99.90;;;;;;5064893;28;20223;-51
2021/06/27 06:29:52;;;;;;;20.10;15.27;;;20.70;99.90;;;;;;5065015;28;20643;-50
2021/06/27 06:32:19;;;;;;;19.93;14.10;;;20.70;99.90;;;;;;5064027;28;20208;-51
2021/06/27 06:34:46;;;;;;;19.57;14.87;;;20.80;99.90;;;;;;5066116;28;20203;-51
2021/06/27 06:37:13;;;;;;;18.43;14.07;;;20.90;99.90;;;;;;5064224;28;20203;-51
2021/06/27 06:39:41;;;;;;;19.97;14.67;;;20.80;99.90;;;;;;5064248;28;20242;-51
2021/06/27 06:42:10;;;;;;;17.47;14.43;;;20.80;99.90;;;;;;5062920;28;20290;-52
2021/06/27 06:44:37;;;;;;;19.23;15.13;;;20.90;99.90;;;;;;5065455;28;20543;-51
2021/06/27 06:47:04;;;;;;;21.73;14.50;;;20.90;99.90;;;;;;5067233;28;20696;-51
2021/06/27 06:49:30;;;;;;;16.20;13.57;;;21.00;99.90;;;;;;5065937;28;20216;-51
2021/06/27 06:51:57;;;;;;;16.70;13.53;;;21.00;99.90;;;;;;5065795;28;20187;-51
2021/06/27 06:54:24;;;;;;;23.30;16.03;;;21.10;99.90;;;;;;5049529;28;20199;-52
2021/06/27 06:56:51;;;;;;;18.93;13.60;;;21.10;99.90;;;;;;5064255;28;20291;-52
2021/06/27 06:59:18;;;;;;;16.97;13.50;;;21.20;99.90;;;;;;5063471;28;20227;-51
2021/06/27 07:01:45;;;;;;;18.93;14.10;;;21.20;99.90;;;;;;5065438;28;20241;-52
2021/06/27 07:04:12;;;;;;;18.60;13.83;;;21.30;99.90;;;;;;5068082;28;20584;-51
2021/06/27 07:06:39;;;;;;;19.07;13.70;;;21.30;99.90;;;;;;5062690;28;20195;-52
2021/06/27 07:09:05;;;;;;;16.83;13.77;;;21.30;99.90;;;;;;5062910;28;20367;-51
2021/06/27 07:11:32;;;;;;;15.03;13.33;;;21.30;99.90;;;;;;5061386;28;20234;-51
2021/06/27 07:14:00;;;;;;;20.10;15.00;;;21.40;99.90;;;;;;5064178;28;20709;-51
2021/06/27 07:16:27;;;;;;;17.93;14.50;;;21.40;99.90;;;;;;5066099;28;20243;-51
2021/06/27 07:18:54;;;;;;;19.37;14.43;;;21.40;99.90;;;;;;5064107;28;20203;-51
2021/06/27 07:21:21;;;;;;;17.53;13.80;;;21.60;99.90;;;;;;5064637;28;20203;-51
2021/06/27 07:23:48;;;;;;;18.23;14.13;;;21.60;99.90;;;;;;5064597;28;20951;-51
2021/06/27 07:26:15;;;;;;;17.73;12.70;;;21.50;99.90;;;;;;5062695;28;20297;-51
2021/06/27 07:28:41;;;;;;;18.23;14.20;;;21.50;99.90;;;;;;5061682;28;20219;-51
2021/06/27 07:31:08;;;;;;;17.80;14.93;;;21.50;99.90;;;;;;5061943;28;20474;-50
2021/06/27 07:33:36;;;;;;;17.27;13.40;;;21.60;99.90;;;;;;5061940;28;20202;-51
2021/06/27 07:36:03;;;;;;;17.00;14.03;;;21.50;99.90;;;;;;5064567;28;20204;-50
2021/06/27 07:38:30;;;;;;;16.30;13.00;;;21.60;99.90;;;;;;5065194;28;20271;-50
2021/06/27 07:40:57;;;;;;;16.57;12.93;;;21.80;99.90;;;;;;5063236;28;20199;-50
2021/06/27 07:43:23;;;;;;;17.37;13.73;;;21.80;99.90;;;;;;5062340;28;20216;-50
2021/06/27 07:45:50;;;;;;;17.33;12.37;;;21.90;99.90;;;;;;5060871;28;20756;-50
2021/06/27 07:48:17;;;;;;;20.13;13.53;;;22.00;99.90;;;;;;5059018;28;20195;-50
2021/06/27 07:50:44;;;;;;;16.03;12.87;;;22.00;99.90;;;;;;5062036;28;20417;-50
2021/06/27 07:53:11;;;;;;;14.30;11.77;;;22.20;99.90;;;;;;5065422;28;20259;-50
2021/06/27 07:55:38;;;;;;;18.00;14.23;;;22.50;99.90;;;;;;5063949;28;20238;-51
2021/06/27 07:58:05;;;;;;;16.67;13.30;;;22.60;99.90;;;;;;5062611;28;20289;-50
2021/06/27 08:00:32;;;;;;;18.20;13.50;;;23.00;99.90;;;;;;5060656;28;20310;-50
2021/06/27 08:03:00;;;;;;;15.90;11.97;;;23.20;99.90;;;;;;5058904;28;20200;-51
2021/06/27 08:05:27;;;;;;;15.90;12.00;;;23.40;99.90;;;;;;5060916;28;20306;-51
2021/06/27 08:07:54;;;;;;;12.63;11.20;;;23.50;99.90;;;;;;5059338;28;20200;-51
2021/06/27 08:10:25;;;;;;;14.70;11.63;;;24.10;99.90;;;;;;5061228;28;20193;-50
2021/06/27 08:12:52;;;;;;;14.63;13.10;;;24.40;93.80;;;;;;5059675;28;20280;-51
2021/06/27 08:15:20;;;;;;;15.77;12.53;;;24.60;80.90;;;;;;5062666;28;20521;-51
2021/06/27 08:17:50;;;;;;;18.77;12.43;;;24.80;74.80;;;;;;5060951;28;20640;-50
2021/06/27 08:20:20;;;;;;;16.70;13.93;;;25.00;70.70;;;;;;5058909;28;20350;-50
2021/06/27 08:22:48;;;;;;;13.77;11.00;;;24.70;83.60;;;;;;5062880;28;20236;-50
2021/06/27 08:25:15;;;;;;;12.03;10.73;;;25.30;85.70;;;;;;5054435;28;20239;-49
2021/06/27 08:27:42;;;;;;;15.87;11.47;;;25.50;68.00;;;;;;5054728;28;21233;-50
2021/06/27 08:30:10;;;;;;;14.93;13.13;;;25.70;56.30;;;;;;5055979;28;20244;-50
2021/06/27 08:32:43;;;;;;;14.13;10.43;;;25.60;54.50;;;;;;5063293;28;20713;-51
2021/06/27 08:35:15;;;;;;;13.97;11.50;;;25.50;73.70;;;;;;5060715;28;20248;-50
2021/06/27 08:37:42;;;;;;;15.80;13.03;;;25.60;59.50;;;;;;5061490;28;20230;-50
2021/06/27 08:40:11;;;;;;;14.73;12.50;;;25.70;47.90;;;;;;5056946;28;20286;-51
2021/06/27 08:42:39;;;;;;;13.90;11.40;;;25.70;63.40;;;;;;5056424;28;20267;-50
2021/06/27 08:45:08;;;;;;;14.17;11.23;;;26.10;55.20;;;;;;5047983;28;20242;-50
2021/06/27 08:47:36;;;;;;;12.80;10.93;;;26.90;48.00;;;;;;5058554;28;20331;-59
2021/06/27 08:50:06;;;;;;;11.87;9.90;;;27.20;34.80;;;;;;5056874;28;20240;-50
2021/06/27 08:52:34;;;;;;;15.37;12.40;;;27.20;28.10;;;;;;5058761;28;20298;-50
2021/06/27 08:55:01;;;;;;;12.03;10.73;;;27.00;25.10;;;;;;5056977;28;20707;-50
2021/06/27 08:57:28;;;;;;;13.30;10.50;;;26.60;32.00;;;;;;5057703;28;20203;-50
2021/06/27 08:59:57;;;;;;;15.17;11.30;;;27.20;27.90;;;;;;5062598;28;20336;-50
2021/06/27 09:02:23;;;;;;;13.50;11.33;;;26.80;29.90;;;;;;5057320;28;20279;-50
2021/06/27 09:04:50;;;;;;;15.63;11.83;;;27.00;30.00;;;;;;5063335;28;20674;-51
2021/06/27 09:07:28;;;;;;;11.43;10.00;;;26.20;40.90;;;;;;5060018;28;20281;-50
2021/06/27 09:09:59;;;;;;;13.17;10.80;;;26.50;40.90;;;;;;5058861;28;20238;-50
2021/06/27 09:12:26;;;;;;;14.97;12.00;;;25.90;47.30;;;;;;5061142;28;20243;-50
2021/06/27 09:14:57;;;;;;;12.47;10.53;;;25.90;46.60;;;;;;5046380;28;20270;-51
2021/06/27 09:17:25;;;;;;;14.03;11.13;;;25.70;50.50;;;;;;5060788;28;20335;-51
2021/06/27 09:19:52;;;;;;;13.07;10.93;;;25.60;58.70;;;;;;5075840;28;20514;-50
2021/06/27 09:22:26;;;;;;;13.80;11.07;;;25.40;57.40;;;;;;5062170;28;20293;-50
2021/06/27 09:25:11;;;;;;;11.00;9.80;;;25.00;79.40;;;;;;5051498;28;20328;-50
2021/06/27 09:27:38;;;;;;;11.80;9.93;;;25.50;73.50;;;;;;5060306;28;20251;-50
2021/06/27 09:30:19;;;;;;;12.87;10.10;;;25.50;58.40;;;;;;5052218;28;21992;-50
2021/06/27 09:33:00;;;;;;;12.73;9.73;;;25.80;63.40;;;;;;5055455;28;20313;-50
2021/06/27 09:35:54;;;;;;;9.83;8.57;;;26.00;48.40;;;;;;5051399;28;20688;-50
2021/06/27 09:38:32;;;;;;;12.53;10.57;;;26.60;48.10;;;;;;5046401;28;20346;-50
2021/06/27 09:41:16;;;;;;;14.00;10.23;;;25.90;50.20;;;;;;5054371;28;20207;-50
2021/06/27 09:43:58;;;;;;;11.50;10.30;;;26.30;48.30;;;;;;5052854;28;20244;-50
2021/06/27 09:46:43;;;;;;;13.23;10.70;;;26.20;46.40;;;;;;5058170;28;20342;-50
2021/06/27 09:49:14;;;;;;;12.07;9.37;;;25.60;53.00;;;;;;5048680;28;20206;-50
2021/06/27 09:51:48;;;;;;;15.50;10.07;;;26.20;52.20;;;;;;5054640;28;20366;-50
2021/06/27 09:54:17;;;;;;;12.87;10.57;;;26.50;43.00;;;;;;5054825;28;20437;-50
2021/06/27 09:56:45;;;;;;;12.57;9.77;;;26.60;39.70;;;;;;5053316;28;20312;-50
2021/06/27 09:59:17;;;;;;;12.67;10.37;;;26.60;44.90;;;;;;5057689;28;20306;-50
2021/06/27 10:01:44;;;;;;;12.50;9.37;;;26.90;37.10;;;;;;5046363;28;20386;-51
2021/06/27 10:04:28;;;;;;;9.83;8.57;;;26.80;41.80;;;;;;5044119;28;20628;-51
2021/06/27 10:06:57;;;;;;;11.30;8.83;;;26.60;42.70;;;;;;5047570;28;20271;-50
2021/06/27 10:09:29;;;;;;;10.93;8.60;;;26.80;44.60;;;;;;5057649;28;20229;-50
2021/06/27 10:12:18;;;;;;;11.17;9.27;;;27.10;32.30;;;;;;5057338;28;20326;-51
2021/06/27 10:14:49;;;;;;;9.20;7.97;;;27.20;26.00;;;;;;5061350;28;20227;-50
2021/06/27 10:17:18;;;;;;;10.47;8.70;;;27.30;30.70;;;;;;5058557;28;20274;-50
2021/06/27 10:19:46;;;;;;;8.10;7.23;;;27.30;24.00;;;;;;5057689;28;20656;-50
2021/06/27 10:22:13;;;;;;;10.77;8.23;;;27.50;23.30;;;;;;5061484;28;20235;-50
2021/06/27 10:24:40;;;;;;;7.97;7.17;;;27.30;26.20;;;;;;5058143;28;20659;-51
2021/06/27 10:27:09;;;;;;;9.83;8.20;;;27.70;22.90;;;;;;5059507;28;20365;-51
2021/06/27 10:29:42;;;;;;;11.67;9.97;;;27.50;20.40;;;;;;5059164;28;20309;-50
2021/06/27 10:32:11;;;;;;;10.77;9.50;;;27.10;23.50;;;;;;5055207;28;20280;-50
2021/06/27 10:34:39;;;;;;;13.33;10.07;;;26.90;23.40;;;;;;5055769;28;20267;-49
2021/06/27 10:37:08;;;;;;;9.27;8.27;;;26.60;29.70;;;;;;5059758;28;20689;-50
2021/06/27 10:39:35;;;;;;;12.03;10.20;;;26.70;35.20;;;;;;5056897;28;20292;-50
2021/06/27 10:42:06;;;;;;;10.57;8.57;;;26.40;31.90;;;;;;5055931;28;20287;-50
2021/06/27 10:44:39;;;;;;;11.13;8.60;;;26.70;37.60;;;;;;5058659;28;20208;-51
2021/06/27 10:47:07;;;;;;;10.73;9.27;;;27.00;33.60;;;;;;5059400;28;20296;-51
2021/06/27 10:49:34;;;;;;;11.37;9.43;;;26.90;28.50;;;;;;5062914;28;20199;-51
2021/06/27 10:52:11;;;;;;;10.30;9.23;;;26.70;29.60;;;;;;5061875;28;20197;-50
2021/06/27 10:54:43;;;;;;;9.80;8.67;;;27.10;28.80;;;;;;5065067;28;20217;-50
2021/06/27 10:57:16;;;;;;;9.50;8.33;;;27.20;29.30;;;;;;5064646;28;20197;-50
2021/06/27 10:59:47;;;;;;;12.50;8.97;;;27.30;27.90;;;;;;5065378;28;20235;-50
2021/06/27 11:02:31;;;;;;;10.53;9.43;;;27.30;27.20;;;;;;5061394;28;20203;-51
2021/06/27 11:05:33;;;;;;;9.00;7.97;;;27.20;25.80;;;;;;5053101;28;20265;-50
2021/06/27 11:08:04;;;;;;;9.30;8.10;;;27.80;24.10;;;;;;5065109;28;20229;-50
2021/06/27 11:10:36;;;;;;;9.40;7.70;;;27.70;23.50;;;;;;5062574;28;20277;-50
2021/06/27 11:13:06;;;;;;;9.40;7.83;;;28.70;14.90;;;;;;5057855;28;20232;-51
2021/06/27 11:15:43;;;;;;;12.47;8.73;;;28.60;11.70;;;;;;5060320;28;20228;-49
2021/06/27 11:18:47;;;;;;;8.37;7.43;;;28.10;9.10;;;;;;5059356;28;20222;-50
2021/06/27 11:21:20;;;;;;;7.93;7.13;;;28.10;6.90;;;;;;5057226;28;20211;-50
2021/06/27 11:23:51;;;;;;;7.10;6.30;;;27.60;11.40;;;;;;5065232;28;20505;-50
2021/06/27 11:26:48;;;;;;;8.40;6.70;;;28.00;9.00;;;;;;5062233;28;20641;-50
2021/06/27 11:29:21;;;;;;;7.50;6.43;;;28.30;9.80;;;;;;5052025;28;20334;-50
2021/06/27 11:32:15;;;;;;;8.03;7.23;;;28.90;5.30;;;;;;5059907;28;20219;-50
2021/06/27 11:34:56;;;;;;;7.20;6.50;;;28.80;6.00;;;;;;5061339;28;20206;-50
2021/06/27 11:37:23;;;;;;;6.25;5.68;;;29.40;1.00;;;;;;5060604;28;20188;-51
2021/06/27 11:39:54;;;;;;;6.13;5.53;;;29.90;1.00;;;;;;5065592;28;20288;-50
2021/06/27 11:42:27;;;;;;;5.35;4.85;;;30.60;1.00;;;;;;5060024;28;20653;-51
2021/06/27 11:45:09;;;;;;;6.95;5.85;;;29.90;1.00;;;;;;5062279;28;20246;-50
2021/06/27 11:48:01;;;;;;;6.57;5.57;;;29.70;1.00;;;;;;5063371;28;20265;-50
2021/06/27 11:50:33;;;;;;;6.90;6.20;;;29.70;1.00;;;;;;5054800;28;20214;-51
2021/06/27 11:53:02;;;;;;;6.95;6.10;;;29.60;1.00;;;;;;5052194;28;20204;-50
2021/06/27 11:55:44;;;;;;;6.95;5.57;;;29.40;1.00;;;;;;5059198;28;20702;-50
2021/06/27 11:58:24;;;;;;;7.80;5.43;;;30.10;1.00;;;;;;5067296;28;20267;-50
2021/06/27 12:00:51;;;;;;;7.82;6.93;;;30.30;1.00;;;;;;5049150;28;20435;-51
2021/06/27 12:03:22;;;;;;;7.07;5.72;;;29.40;1.00;;;;;;5054774;28;20238;-51
2021/06/27 12:05:50;;;;;;;5.90;5.32;;;29.30;1.00;;;;;;5061187;28;20215;-50
2021/06/27 12:08:18;;;;;;;6.55;5.32;;;29.20;1.00;;;;;;5063763;28;20253;-50
2021/06/27 12:10:45;;;;;;;5.88;5.13;;;29.30;1.00;;;;;;5062802;28;20253;-51
2021/06/27 12:13:11;;;;;;;14.50;7.40;;;30.00;1.00;;;;;;5065766;28;20188;-51
2021/06/27 12:15:38;;;;;;;4.93;4.53;;;31.10;1.00;;;;;;5061074;28;20245;-51
2021/06/27 12:18:10;;;;;;;5.57;4.93;;;30.80;1.00;;;;;;5060922;28;20226;-50
2021/06/27 12:20:46;;;;;;;8.40;5.32;;;31.60;1.00;;;;;;5061291;28;20291;-50
2021/06/27 12:23:26;;;;;;;6.10;5.10;;;31.10;1.00;;;;;;5061248;28;20631;-50
2021/06/27 12:26:01;;;;;;;6.38;5.78;;;31.50;1.00;;;;;;5061943;28;20310;-52
2021/06/27 12:28:55;;;;;;;7.38;6.15;;;30.10;1.00;;;;;;5060696;28;20758;-51
2021/06/27 12:31:32;;;;;;;5.97;5.45;;;29.50;1.00;;;;;;5053515;28;20216;-51
2021/06/27 12:34:04;;;;;;;6.72;5.63;;;29.30;1.00;;;;;;5053621;28;20226;-51
2021/06/27 12:36:51;;;;;;;5.82;5.32;;;29.10;1.00;;;;;;5057265;28;20272;-49
2021/06/27 12:39:25;;;;;;;7.82;5.60;;;29.40;1.00;;;;;;5057093;28;20223;-50
2021/06/27 12:42:13;;;;;;;6.68;5.90;;;29.30;1.00;;;;;;5057610;28;20646;-50
2021/06/27 12:44:39;;;;;;;6.30;5.70;;;28.60;1.00;;;;;;5065051;28;20228;-51